sensor_id;sensor_type;location;lat;lon;timestamp;pressure;altitude;pressure_sealevel;temperature;humidity
48364;BME280;34170;54.364;18.582;2023-03-18T00:02:15;100349.66;;;5.43;60.77
48364;BME280;34170;54.364;18.582;2023-03-18T00:04:45;100353.34;;;5.29;59.29
48364;BME280;34170;54.364;18.582;2023-03-18T00:07:12;100344.44;;;5.42;58.68
48364;BME280;34170;54.364;18.582;2023-03-18T00:09:40;100335.91;;;5.49;58.80
48364;BME280;34170;54.364;18.582;2023-03-18T00:12:08;100349.25;;;5.73;57.89
48364;BME280;34170;54.364;18.582;2023-03-18T00:14:37;100342.78;;;5.28;59.15
48364;BME280;34170;54.364;18.582;2023-03-18T00:17:05;100345.22;;;5.44;58.74
48364;BME280;34170;54.364;18.582;2023-03-18T00:19:32;100333.31;;;5.11;60.41
48364;BME280;34170;54.364;18.582;2023-03-18T00:22:00;100326.59;;;5.05;60.34
48364;BME280;34170;54.364;18.582;2023-03-18T00:24:27;100319.03;;;5.12;60.23
48364;BME280;34170;54.364;18.582;2023-03-18T00:26:55;100315.28;;;5.14;59.83
48364;BME280;34170;54.364;18.582;2023-03-18T00:29:23;100322.75;;;5.09;60.26
48364;BME280;34170;54.364;18.582;2023-03-18T00:31:51;100326.81;;;5.02;60.16
48364;BME280;34170;54.364;18.582;2023-03-18T00:34:19;100322.22;;;5.17;59.57
48364;BME280;34170;54.364;18.582;2023-03-18T00:36:47;100338.34;;;5.15;59.52
48364;BME280;34170;54.364;18.582;2023-03-18T00:39:17;100322.97;;;5.19;59.79
48364;BME280;34170;54.364;18.582;2023-03-18T00:41:47;100322.97;;;5.19;59.57
48364;BME280;34170;54.364;18.582;2023-03-18T00:44:15;100304.03;;;4.98;60.28
48364;BME280;34170;54.364;18.582;2023-03-18T00:46:43;100322.69;;;4.98;60.50
48364;BME280;34170;54.364;18.582;2023-03-18T00:49:10;100315.06;;;5.18;59.99
48364;BME280;34170;54.364;18.582;2023-03-18T00:51:38;100317.56;;;4.95;60.64
48364;BME280;34170;54.364;18.582;2023-03-18T00:54:10;100311.47;;;4.93;60.64
48364;BME280;34170;54.364;18.582;2023-03-18T00:56:39;100312.16;;;4.71;61.14
48364;BME280;34170;54.364;18.582;2023-03-18T00:59:07;100305.31;;;4.92;60.52
48364;BME280;34170;54.364;18.582;2023-03-18T01:01:35;100288.16;;;4.84;60.72
48364;BME280;34170;54.364;18.582;2023-03-18T01:04:04;100303.50;;;4.93;60.68
48364;BME280;34170;54.364;18.582;2023-03-18T01:06:34;100295.94;;;4.87;60.77
48364;BME280;34170;54.364;18.582;2023-03-18T01:09:03;100307.00;;;5.06;60.00
48364;BME280;34170;54.364;18.582;2023-03-18T01:11:31;100301.59;;;4.69;61.48
48364;BME280;34170;54.364;18.582;2023-03-18T01:13:59;100308.94;;;4.53;62.36
48364;BME280;34170;54.364;18.582;2023-03-18T01:16:27;100297.44;;;4.65;61.97
48364;BME280;34170;54.364;18.582;2023-03-18T01:18:56;100292.75;;;4.56;62.47
48364;BME280;34170;54.364;18.582;2023-03-18T01:21:24;100281.44;;;4.91;61.64
48364;BME280;34170;54.364;18.582;2023-03-18T01:23:55;100264.19;;;4.45;63.24
48364;BME280;34170;54.364;18.582;2023-03-18T01:26:24;100277.09;;;4.38;63.25
48364;BME280;34170;54.364;18.582;2023-03-18T01:28:54;100270.38;;;4.46;63.62
48364;BME280;34170;54.364;18.582;2023-03-18T01:31:22;100274.84;;;4.45;64.13
48364;BME280;34170;54.364;18.582;2023-03-18T01:33:54;100284.00;;;4.41;63.94
48364;BME280;34170;54.364;18.582;2023-03-18T01:36:22;100252.16;;;4.39;63.29
48364;BME280;34170;54.364;18.582;2023-03-18T01:39:02;100271.44;;;4.17;64.21
48364;BME280;34170;54.364;18.582;2023-03-18T01:41:32;100275.91;;;4.17;64.91
48364;BME280;34170;54.364;18.582;2023-03-18T01:44:00;100261.31;;;4.23;64.66
48364;BME280;34170;54.364;18.582;2023-03-18T01:46:36;100272.50;;;4.28;64.54
48364;BME280;34170;54.364;18.582;2023-03-18T01:49:13;100267.84;;;4.31;64.15
48364;BME280;34170;54.364;18.582;2023-03-18T01:51:43;100268.38;;;4.36;64.83
48364;BME280;34170;54.364;18.582;2023-03-18T01:54:14;100255.09;;;3.96;65.99
48364;BME280;34170;54.364;18.582;2023-03-18T01:56:43;100279.94;;;4.10;65.24
48364;BME280;34170;54.364;18.582;2023-03-18T01:59:12;100275.47;;;4.10;65.38
48364;BME280;34170;54.364;18.582;2023-03-18T02:01:46;100260.13;;;4.01;65.24
48364;BME280;34170;54.364;18.582;2023-03-18T02:04:16;100258.97;;;4.18;65.03
48364;BME280;34170;54.364;18.582;2023-03-18T02:06:45;100253.84;;;4.15;65.73
48364;BME280;34170;54.364;18.582;2023-03-18T02:09:13;100252.91;;;4.29;64.60
48364;BME280;34170;54.364;18.582;2023-03-18T02:11:45;100261.16;;;3.98;65.64
48364;BME280;34170;54.364;18.582;2023-03-18T02:14:23;100265.03;;;4.20;65.34
48364;BME280;34170;54.364;18.582;2023-03-18T02:17:00;100270.78;;;4.01;65.57
48364;BME280;34170;54.364;18.582;2023-03-18T02:22:41;100254.38;;;3.94;66.88
48364;BME280;34170;54.364;18.582;2023-03-18T02:28:12;100268.88;;;4.16;66.61
48364;BME280;34170;54.364;18.582;2023-03-18T02:30:48;100275.66;;;4.07;66.50
48364;BME280;34170;54.364;18.582;2023-03-18T02:33:20;100288.38;;;4.29;65.49
48364;BME280;34170;54.364;18.582;2023-03-18T02:35:53;100283.53;;;3.96;66.64
48364;BME280;34170;54.364;18.582;2023-03-18T02:38:22;100278.59;;;3.90;67.02
48364;BME280;34170;54.364;18.582;2023-03-18T02:40:49;100275.66;;;3.94;67.29
48364;BME280;34170;54.364;18.582;2023-03-18T02:43:26;100282.25;;;4.01;66.82
48364;BME280;34170;54.364;18.582;2023-03-18T02:47:12;100280.88;;;4.09;66.74
48364;BME280;34170;54.364;18.582;2023-03-18T02:49:08;100276.50;;;4.08;66.85
48364;BME280;34170;54.364;18.582;2023-03-18T02:51:37;100276.97;;;3.74;68.23
48364;BME280;34170;54.364;18.582;2023-03-18T02:54:10;100276.00;;;3.75;68.57
48364;BME280;34170;54.364;18.582;2023-03-18T02:56:40;100274.06;;;3.65;68.16
48364;BME280;34170;54.364;18.582;2023-03-18T02:59:09;100274.41;;;3.73;68.46
48364;BME280;34170;54.364;18.582;2023-03-18T03:01:39;100284.72;;;4.05;67.18
48364;BME280;34170;54.364;18.582;2023-03-18T03:04:07;100273.47;;;3.74;68.13
48364;BME280;34170;54.364;18.582;2023-03-18T03:06:35;100271.25;;;3.93;68.13
48364;BME280;34170;54.364;18.582;2023-03-18T03:09:05;100268.25;;;3.45;69.74
48364;BME280;34170;54.364;18.582;2023-03-18T03:11:34;100271.25;;;3.53;70.26
48364;BME280;34170;54.364;18.582;2023-03-18T03:14:10;100264.56;;;3.48;69.92
48364;BME280;34170;54.364;18.582;2023-03-18T03:16:38;100267.06;;;3.36;71.38
48364;BME280;34170;54.364;18.582;2023-03-18T03:19:06;100257.50;;;3.47;70.60
48364;BME280;34170;54.364;18.582;2023-03-18T03:21:35;100268.28;;;3.31;71.15
48364;BME280;34170;54.364;18.582;2023-03-18T03:24:04;100268.25;;;3.45;70.92
48364;BME280;34170;54.364;18.582;2023-03-18T03:26:33;100261.75;;;3.36;70.92
48364;BME280;34170;54.364;18.582;2023-03-18T03:29:03;100268.66;;;3.39;70.71
48364;BME280;34170;54.364;18.582;2023-03-18T03:31:31;100266.69;;;3.28;72.02
48364;BME280;34170;54.364;18.582;2023-03-18T03:33:58;100251.28;;;3.06;72.25
48364;BME280;34170;54.364;18.582;2023-03-18T03:36:26;100261.16;;;2.90;72.85
48364;BME280;34170;54.364;18.582;2023-03-18T03:38:55;100257.41;;;2.79;73.53
48364;BME280;34170;54.364;18.582;2023-03-18T03:41:23;100239.06;;;2.89;74.33
48364;BME280;34170;54.364;18.582;2023-03-18T03:43:50;100251.81;;;3.26;73.23
48364;BME280;34170;54.364;18.582;2023-03-18T03:46:18;100235.19;;;2.80;74.00
48364;BME280;34170;54.364;18.582;2023-03-18T03:48:46;100237.16;;;2.91;74.66
48364;BME280;34170;54.364;18.582;2023-03-18T03:51:15;100248.16;;;2.99;74.12
48364;BME280;34170;54.364;18.582;2023-03-18T03:53:42;100249.94;;;3.13;74.14
48364;BME280;34170;54.364;18.582;2023-03-18T03:56:13;100252.81;;;2.96;73.88
48364;BME280;34170;54.364;18.582;2023-03-18T03:58:41;100245.44;;;2.86;74.48
48364;BME280;34170;54.364;18.582;2023-03-18T04:01:09;100228.47;;;2.75;74.88
48364;BME280;34170;54.364;18.582;2023-03-18T04:03:36;100227.31;;;2.79;74.63
48364;BME280;34170;54.364;18.582;2023-03-18T04:06:06;100226.78;;;2.74;75.35
48364;BME280;34170;54.364;18.582;2023-03-18T04:08:38;100232.16;;;2.86;75.09
48364;BME280;34170;54.364;18.582;2023-03-18T04:11:06;100223.44;;;2.84;74.30
48364;BME280;34170;54.364;18.582;2023-03-18T04:13:33;100237.50;;;3.14;73.76
48364;BME280;34170;54.364;18.582;2023-03-18T04:16:01;100229.78;;;2.67;75.38
48364;BME280;34170;54.364;18.582;2023-03-18T04:18:29;100239.13;;;3.02;73.31
48364;BME280;34170;54.364;18.582;2023-03-18T04:20:57;100241.69;;;3.03;74.52
48364;BME280;34170;54.364;18.582;2023-03-18T04:23:36;100238.66;;;3.10;73.92
48364;BME280;34170;54.364;18.582;2023-03-18T04:26:04;100239.91;;;2.90;75.54
48364;BME280;34170;54.364;18.582;2023-03-18T04:28:32;100223.44;;;2.56;76.32
48364;BME280;34170;54.364;18.582;2023-03-18T04:31:02;100228.56;;;2.73;76.58
48364;BME280;34170;54.364;18.582;2023-03-18T04:33:29;100235.00;;;2.69;76.34
48364;BME280;34170;54.364;18.582;2023-03-18T04:35:57;100231.28;;;2.86;75.80
48364;BME280;34170;54.364;18.582;2023-03-18T04:38:25;100223.81;;;2.64;77.46
48364;BME280;34170;54.364;18.582;2023-03-18T04:40:54;100217.00;;;2.60;76.67
48364;BME280;34170;54.364;18.582;2023-03-18T04:43:22;100223.06;;;2.62;77.23
48364;BME280;34170;54.364;18.582;2023-03-18T04:45:50;100223.25;;;2.59;77.02
48364;BME280;34170;54.364;18.582;2023-03-18T04:48:19;100216.25;;;2.43;77.12
48364;BME280;34170;54.364;18.582;2023-03-18T04:50:46;100227.03;;;2.83;77.15
48364;BME280;34170;54.364;18.582;2023-03-18T04:53:19;100221.00;;;2.53;78.09
48364;BME280;34170;54.364;18.582;2023-03-18T04:55:48;100233.94;;;2.72;77.15
48364;BME280;34170;54.364;18.582;2023-03-18T04:58:18;100231.13;;;2.75;77.00
48364;BME280;34170;54.364;18.582;2023-03-18T05:00:58;100212.06;;;2.25;78.97
48364;BME280;34170;54.364;18.582;2023-03-18T05:03:33;100224.69;;;2.36;79.53
48364;BME280;34170;54.364;18.582;2023-03-18T05:06:01;100226.88;;;2.72;78.14
48364;BME280;34170;54.364;18.582;2023-03-18T05:08:39;100212.38;;;2.63;78.05
48364;BME280;34170;54.364;18.582;2023-03-18T05:11:06;100202.03;;;2.30;79.24
48364;BME280;34170;54.364;18.582;2023-03-18T05:13:35;100214.38;;;2.45;79.16
48364;BME280;34170;54.364;18.582;2023-03-18T05:16:05;100218.69;;;2.61;78.46
48364;BME280;34170;54.364;18.582;2023-03-18T05:18:33;100207.72;;;2.53;78.48
48364;BME280;34170;54.364;18.582;2023-03-18T05:21:03;100199.94;;;2.50;78.78
48364;BME280;34170;54.364;18.582;2023-03-18T05:23:31;100209.47;;;2.95;77.04
48364;BME280;34170;54.364;18.582;2023-03-18T05:25:59;100208.63;;;2.80;76.88
48364;BME280;34170;54.364;18.582;2023-03-18T05:28:29;100208.22;;;3.01;76.82
48364;BME280;34170;54.364;18.582;2023-03-18T05:31:13;100211.00;;;2.85;75.96
48364;BME280;34170;54.364;18.582;2023-03-18T05:33:42;100212.22;;;3.21;74.41
48364;BME280;34170;54.364;18.582;2023-03-18T05:36:12;100203.22;;;3.63;72.81
48364;BME280;34170;54.364;18.582;2023-03-18T05:38:55;100206.06;;;3.48;72.97
48364;BME280;34170;54.364;18.582;2023-03-18T05:41:24;100215.41;;;3.40;72.33
48364;BME280;34170;54.364;18.582;2023-03-18T05:43:52;100209.06;;;3.29;73.80
48364;BME280;34170;54.364;18.582;2023-03-18T05:46:20;100203.66;;;3.03;74.94
48364;BME280;34170;54.364;18.582;2023-03-18T05:49:10;100207.19;;;3.16;73.38
48364;BME280;34170;54.364;18.582;2023-03-18T05:51:48;100202.41;;;3.09;74.43
48364;BME280;34170;54.364;18.582;2023-03-18T05:54:29;100209.16;;;3.00;74.87
48364;BME280;34170;54.364;18.582;2023-03-18T05:56:56;100205.69;;;3.39;73.43
48364;BME280;34170;54.364;18.582;2023-03-18T05:59:24;100205.16;;;3.74;70.99
48364;BME280;34170;54.364;18.582;2023-03-18T06:01:56;100214.69;;;3.51;71.30
48364;BME280;34170;54.364;18.582;2023-03-18T06:04:23;100215.25;;;3.29;72.83
48364;BME280;34170;54.364;18.582;2023-03-18T06:06:53;100210.13;;;3.53;72.53
48364;BME280;34170;54.364;18.582;2023-03-18T06:09:21;100211.06;;;3.52;72.35
48364;BME280;34170;54.364;18.582;2023-03-18T06:11:51;100200.94;;;3.44;71.89
48364;BME280;34170;54.364;18.582;2023-03-18T06:14:18;100201.66;;;3.34;72.89
48364;BME280;34170;54.364;18.582;2023-03-18T06:16:45;100202.50;;;3.34;74.57
48364;BME280;34170;54.364;18.582;2023-03-18T06:19:13;100191.13;;;3.72;71.14
48364;BME280;34170;54.364;18.582;2023-03-18T06:21:41;100205.22;;;3.47;71.42
48364;BME280;34170;54.364;18.582;2023-03-18T06:24:08;100195.16;;;3.65;70.42
48364;BME280;34170;54.364;18.582;2023-03-18T06:26:37;100187.94;;;3.93;69.71
48364;BME280;34170;54.364;18.582;2023-03-18T06:29:06;100211.59;;;4.10;69.84
48364;BME280;34170;54.364;18.582;2023-03-18T06:31:34;100211.19;;;3.51;71.31
48364;BME280;34170;54.364;18.582;2023-03-18T06:34:02;100209.66;;;3.99;69.90
48364;BME280;34170;54.364;18.582;2023-03-18T06:36:33;100207.00;;;3.87;70.51
48364;BME280;34170;54.364;18.582;2023-03-18T06:39:04;100213.13;;;3.61;70.73
48364;BME280;34170;54.364;18.582;2023-03-18T06:41:33;100198.69;;;3.91;71.74
48364;BME280;34170;54.364;18.582;2023-03-18T06:44:16;100220.22;;;3.61;70.80
48364;BME280;34170;54.364;18.582;2023-03-18T06:46:45;100216.38;;;3.92;70.42
48364;BME280;34170;54.364;18.582;2023-03-18T06:49:13;100226.69;;;3.97;69.71
48364;BME280;34170;54.364;18.582;2023-03-18T06:51:48;100211.16;;;4.04;68.73
48364;BME280;34170;54.364;18.582;2023-03-18T06:54:16;100218.91;;;5.08;64.59
48364;BME280;34170;54.364;18.582;2023-03-18T06:56:44;100213.31;;;5.24;64.64
48364;BME280;34170;54.364;18.582;2023-03-18T06:59:16;100219.00;;;4.69;64.59
48364;BME280;34170;54.364;18.582;2023-03-18T07:01:45;100211.81;;;4.83;64.74
48364;BME280;34170;54.364;18.582;2023-03-18T07:04:15;100223.97;;;5.00;63.75
48364;BME280;34170;54.364;18.582;2023-03-18T07:06:43;100246.72;;;4.54;64.96
48364;BME280;34170;54.364;18.582;2023-03-18T07:09:11;100241.97;;;4.96;64.92
48364;BME280;34170;54.364;18.582;2023-03-18T07:11:43;100230.44;;;4.58;63.98
48364;BME280;34170;54.364;18.582;2023-03-18T07:14:16;100232.44;;;5.18;62.48
48364;BME280;34170;54.364;18.582;2023-03-18T07:16:45;100237.09;;;5.27;61.31
48364;BME280;34170;54.364;18.582;2023-03-18T07:19:14;100238.44;;;5.08;62.13
48364;BME280;34170;54.364;18.582;2023-03-18T07:21:42;100241.81;;;5.47;60.62
48364;BME280;34170;54.364;18.582;2023-03-18T07:24:09;100245.16;;;5.62;59.71
48364;BME280;34170;54.364;18.582;2023-03-18T07:26:37;100245.78;;;5.66;59.13
48364;BME280;34170;54.364;18.582;2023-03-18T07:29:08;100238.72;;;5.65;59.02
48364;BME280;34170;54.364;18.582;2023-03-18T07:31:35;100243.34;;;6.45;56.68
48364;BME280;34170;54.364;18.582;2023-03-18T07:34:03;100236.91;;;5.41;59.61
48364;BME280;34170;54.364;18.582;2023-03-18T07:36:31;100233.38;;;6.81;55.48
48364;BME280;34170;54.364;18.582;2023-03-18T07:38:59;100233.84;;;6.29;55.73
48364;BME280;34170;54.364;18.582;2023-03-18T07:41:26;100232.81;;;5.97;56.72
48364;BME280;34170;54.364;18.582;2023-03-18T07:43:54;100216.13;;;6.28;56.39
48364;BME280;34170;54.364;18.582;2023-03-18T07:46:21;100218.19;;;5.89;57.63
48364;BME280;34170;54.364;18.582;2023-03-18T07:48:49;100228.59;;;6.17;57.02
48364;BME280;34170;54.364;18.582;2023-03-18T07:51:16;100230.63;;;6.02;56.93
48364;BME280;34170;54.364;18.582;2023-03-18T07:53:44;100230.56;;;6.26;56.30
48364;BME280;34170;54.364;18.582;2023-03-18T07:56:11;100234.97;;;5.43;58.44
48364;BME280;34170;54.364;18.582;2023-03-18T07:58:39;100233.09;;;6.16;56.42
48364;BME280;34170;54.364;18.582;2023-03-18T08:01:06;100236.47;;;5.96;56.64
48364;BME280;34170;54.364;18.582;2023-03-18T08:03:34;100223.13;;;5.96;57.65
48364;BME280;34170;54.364;18.582;2023-03-18T08:06:02;100220.47;;;6.18;58.25
48364;BME280;34170;54.364;18.582;2023-03-18T08:08:29;100218.25;;;6.01;57.62
48364;BME280;34170;54.364;18.582;2023-03-18T08:10:58;100206.63;;;6.13;58.80
48364;BME280;34170;54.364;18.582;2023-03-18T08:13:26;100225.06;;;6.05;57.78
48364;BME280;34170;54.364;18.582;2023-03-18T08:15:54;100212.50;;;6.52;56.06
48364;BME280;34170;54.364;18.582;2023-03-18T08:18:22;100211.84;;;6.15;57.69
48364;BME280;34170;54.364;18.582;2023-03-18T08:20:50;100208.13;;;6.62;56.02
48364;BME280;34170;54.364;18.582;2023-03-18T08:23:18;100210.09;;;8.12;52.33
48364;BME280;34170;54.364;18.582;2023-03-18T08:25:49;100213.56;;;7.71;53.18
48364;BME280;34170;54.364;18.582;2023-03-18T08:28:17;100208.78;;;7.10;55.12
48364;BME280;34170;54.364;18.582;2023-03-18T08:30:45;100204.03;;;7.57;54.68
48364;BME280;34170;54.364;18.582;2023-03-18T08:33:13;100204.44;;;6.97;54.06
48364;BME280;34170;54.364;18.582;2023-03-18T08:35:40;100207.91;;;8.27;50.80
48364;BME280;34170;54.364;18.582;2023-03-18T08:38:09;100212.28;;;8.49;50.33
48364;BME280;34170;54.364;18.582;2023-03-18T08:40:36;100204.00;;;7.89;51.60
48364;BME280;34170;54.364;18.582;2023-03-18T08:43:03;100200.09;;;9.26;48.53
48364;BME280;34170;54.364;18.582;2023-03-18T08:45:32;100196.75;;;9.83;44.90
48364;BME280;34170;54.364;18.582;2023-03-18T08:48:00;100191.63;;;10.94;43.45
48364;BME280;34170;54.364;18.582;2023-03-18T08:50:27;100194.91;;;9.54;44.66
48364;BME280;34170;54.364;18.582;2023-03-18T08:52:57;100179.06;;;9.70;44.01
48364;BME280;34170;54.364;18.582;2023-03-18T08:55:35;100196.19;;;8.80;47.23
48364;BME280;34170;54.364;18.582;2023-03-18T08:58:06;100181.13;;;8.27;47.07
48364;BME280;34170;54.364;18.582;2023-03-18T09:00:36;100187.88;;;8.83;48.17
48364;BME280;34170;54.364;18.582;2023-03-18T09:03:04;100186.97;;;9.23;46.50
48364;BME280;34170;54.364;18.582;2023-03-18T09:05:31;100182.03;;;9.87;44.43
48364;BME280;34170;54.364;18.582;2023-03-18T09:08:00;100180.53;;;11.60;41.64
48364;BME280;34170;54.364;18.582;2023-03-18T09:10:27;100189.09;;;9.29;45.97
48364;BME280;34170;54.364;18.582;2023-03-18T09:12:56;100181.66;;;9.62;44.72
48364;BME280;34170;54.364;18.582;2023-03-18T09:15:23;100177.50;;;9.19;46.12
48364;BME280;34170;54.364;18.582;2023-03-18T09:17:51;100175.69;;;9.20;46.19
48364;BME280;34170;54.364;18.582;2023-03-18T09:20:38;100177.94;;;9.44;45.46
48364;BME280;34170;54.364;18.582;2023-03-18T09:23:07;100164.91;;;9.10;45.71
48364;BME280;34170;54.364;18.582;2023-03-18T09:25:35;100162.38;;;8.99;46.29
48364;BME280;34170;54.364;18.582;2023-03-18T09:28:02;100163.53;;;9.35;45.54
48364;BME280;34170;54.364;18.582;2023-03-18T09:30:30;100172.72;;;9.52;45.90
48364;BME280;34170;54.364;18.582;2023-03-18T09:32:58;100174.47;;;8.83;48.29
48364;BME280;34170;54.364;18.582;2023-03-18T09:35:26;100167.34;;;9.32;46.46
48364;BME280;34170;54.364;18.582;2023-03-18T09:37:55;100161.13;;;9.22;46.46
48364;BME280;34170;54.364;18.582;2023-03-18T09:40:26;100175.41;;;9.52;45.97
48364;BME280;34170;54.364;18.582;2023-03-18T09:45:28;100149.84;;;9.48;46.52
48364;BME280;34170;54.364;18.582;2023-03-18T09:56:04;100151.41;;;8.71;48.70
48364;BME280;34170;54.364;18.582;2023-03-18T10:01:22;100147.50;;;8.75;48.79
48364;BME280;34170;54.364;18.582;2023-03-18T10:04:02;100150.44;;;8.72;48.43
48364;BME280;34170;54.364;18.582;2023-03-18T10:06:30;100145.44;;;8.98;47.42
48364;BME280;34170;54.364;18.582;2023-03-18T10:09:25;100157.09;;;8.77;47.76
48364;BME280;34170;54.364;18.582;2023-03-18T10:12:04;100137.22;;;8.90;48.25
48364;BME280;34170;54.364;18.582;2023-03-18T10:15:00;100137.88;;;8.72;48.85
48364;BME280;34170;54.364;18.582;2023-03-18T10:17:35;100165.25;;;8.66;50.27
48364;BME280;34170;54.364;18.582;2023-03-18T10:20:17;100119.81;;;8.34;50.07
48364;BME280;34170;54.364;18.582;2023-03-18T10:25:34;100141.44;;;8.83;49.31
48364;BME280;34170;54.364;18.582;2023-03-18T10:28:39;100137.63;;;8.85;49.29
48364;BME280;34170;54.364;18.582;2023-03-18T10:31:14;100130.69;;;8.73;48.14
48364;BME280;34170;54.364;18.582;2023-03-18T10:34:01;100120.69;;;8.75;49.08
48364;BME280;34170;54.364;18.582;2023-03-18T10:36:48;100124.38;;;8.84;48.84
48364;BME280;34170;54.364;18.582;2023-03-18T10:39:19;100126.13;;;9.14;48.20
48364;BME280;34170;54.364;18.582;2023-03-18T10:41:50;100106.88;;;8.99;49.49
48364;BME280;34170;54.364;18.582;2023-03-18T10:44:21;100118.47;;;9.19;47.15
48364;BME280;34170;54.364;18.582;2023-03-18T10:47:18;100116.00;;;8.67;48.42
48364;BME280;34170;54.364;18.582;2023-03-18T10:50:14;100118.44;;;8.80;48.98
48364;BME280;34170;54.364;18.582;2023-03-18T10:55:24;100125.56;;;9.10;47.46
48364;BME280;34170;54.364;18.582;2023-03-18T10:57:55;100106.13;;;8.68;48.96
48364;BME280;34170;54.364;18.582;2023-03-18T11:00:31;100089.94;;;8.99;48.68
48364;BME280;34170;54.364;18.582;2023-03-18T11:03:03;100111.69;;;9.34;48.16
48364;BME280;34170;54.364;18.582;2023-03-18T11:05:34;100117.34;;;9.51;48.29
48364;BME280;34170;54.364;18.582;2023-03-18T11:08:04;100113.53;;;9.53;48.55
48364;BME280;34170;54.364;18.582;2023-03-18T11:10:35;100106.34;;;10.01;47.69
48364;BME280;34170;54.364;18.582;2023-03-18T11:13:03;100113.44;;;10.02;45.43
48364;BME280;34170;54.364;18.582;2023-03-18T11:15:36;100125.75;;;9.95;44.87
48364;BME280;34170;54.364;18.582;2023-03-18T11:18:13;100128.66;;;10.21;44.09
48364;BME280;34170;54.364;18.582;2023-03-18T11:20:45;100121.50;;;10.02;44.31
48364;BME280;34170;54.364;18.582;2023-03-18T11:23:32;100136.22;;;9.98;44.92
48364;BME280;34170;54.364;18.582;2023-03-18T11:26:20;100121.31;;;10.14;44.38
48364;BME280;34170;54.364;18.582;2023-03-18T11:28:53;100119.81;;;10.48;43.61
48364;BME280;34170;54.364;18.582;2023-03-18T11:31:22;100111.81;;;9.72;44.81
48364;BME280;34170;54.364;18.582;2023-03-18T11:33:56;100101.75;;;9.74;44.17
48364;BME280;34170;54.364;18.582;2023-03-18T11:36:26;100098.13;;;9.56;44.96
48364;BME280;34170;54.364;18.582;2023-03-18T11:38:57;100099.84;;;9.47;46.15
48364;BME280;34170;54.364;18.582;2023-03-18T11:41:27;100091.78;;;9.37;46.03
48364;BME280;34170;54.364;18.582;2023-03-18T11:44:18;100092.75;;;9.46;46.60
48364;BME280;34170;54.364;18.582;2023-03-18T11:46:55;100101.81;;;10.11;45.34
48364;BME280;34170;54.364;18.582;2023-03-18T11:49:25;100094.50;;;10.69;44.86
48364;BME280;34170;54.364;18.582;2023-03-18T11:55:20;100070.22;;;9.86;46.62
48364;BME280;34170;54.364;18.582;2023-03-18T11:58:00;100066.59;;;10.15;46.24
48364;BME280;34170;54.364;18.582;2023-03-18T12:01:07;100070.63;;;10.28;46.20
48364;BME280;34170;54.364;18.582;2023-03-18T12:15:33;100070.34;;;10.59;43.80
48364;BME280;34170;54.364;18.582;2023-03-18T12:20:50;100081.53;;;10.82;43.42
48364;BME280;34170;54.364;18.582;2023-03-18T12:26:07;100082.44;;;10.73;44.20
48364;BME280;34170;54.364;18.582;2023-03-18T12:31:48;100083.25;;;10.56;45.46
48364;BME280;34170;54.364;18.582;2023-03-18T12:45:17;100078.22;;;10.43;45.33
48364;BME280;34170;54.364;18.582;2023-03-18T12:48:02;100073.72;;;11.25;44.17
48364;BME280;34170;54.364;18.582;2023-03-18T12:53:08;100066.47;;;10.90;44.42
48364;BME280;34170;54.364;18.582;2023-03-18T12:55:40;100081.31;;;11.12;44.40
48364;BME280;34170;54.364;18.582;2023-03-18T12:58:12;100059.69;;;11.03;44.24
48364;BME280;34170;54.364;18.582;2023-03-18T13:01:03;100058.69;;;10.68;44.63
48364;BME280;34170;54.364;18.582;2023-03-18T13:03:37;100052.34;;;10.87;44.40
48364;BME280;34170;54.364;18.582;2023-03-18T13:06:29;100062.78;;;10.91;44.33
48364;BME280;34170;54.364;18.582;2023-03-18T13:12:05;100067.00;;;11.29;43.63
48364;BME280;34170;54.364;18.582;2023-03-18T13:17:31;100074.75;;;11.50;42.97
48364;BME280;34170;54.364;18.582;2023-03-18T13:20:00;100066.72;;;11.58;43.19
48364;BME280;34170;54.364;18.582;2023-03-18T13:25:20;100098.66;;;11.53;43.86
48364;BME280;34170;54.364;18.582;2023-03-18T13:28:12;100083.16;;;11.91;43.38
48364;BME280;34170;54.364;18.582;2023-03-18T13:36:48;100090.00;;;11.23;44.75
48364;BME280;34170;54.364;18.582;2023-03-18T13:42:24;100074.94;;;11.31;44.74
48364;BME280;34170;54.364;18.582;2023-03-18T13:45:26;100081.59;;;11.09;45.17
48364;BME280;34170;54.364;18.582;2023-03-18T13:48:00;100083.00;;;11.49;44.48
48364;BME280;34170;54.364;18.582;2023-03-18T13:50:34;100089.03;;;11.69;44.02
48364;BME280;34170;54.364;18.582;2023-03-18T13:53:04;100094.59;;;11.49;44.46
48364;BME280;34170;54.364;18.582;2023-03-18T13:55:39;100085.56;;;11.14;44.43
48364;BME280;34170;54.364;18.582;2023-03-18T13:58:22;100082.69;;;11.34;44.76
48364;BME280;34170;54.364;18.582;2023-03-18T14:16:22;100084.63;;;11.68;43.50
48364;BME280;34170;54.364;18.582;2023-03-18T14:21:43;100077.16;;;11.79;42.56
48364;BME280;34170;54.364;18.582;2023-03-18T14:26:47;100073.47;;;11.00;44.58
48364;BME280;34170;54.364;18.582;2023-03-18T14:29:40;100071.28;;;11.58;43.66
48364;BME280;34170;54.364;18.582;2023-03-18T14:34:59;100067.16;;;11.72;43.78
48364;BME280;34170;54.364;18.582;2023-03-18T14:37:31;100069.47;;;11.22;44.77
48364;BME280;34170;54.364;18.582;2023-03-18T14:40:14;100056.94;;;10.95;45.59
48364;BME280;34170;54.364;18.582;2023-03-18T14:42:51;100074.47;;;11.17;45.46
48364;BME280;34170;54.364;18.582;2023-03-18T14:47:58;100065.41;;;11.18;46.14
48364;BME280;34170;54.364;18.582;2023-03-18T14:50:40;100057.56;;;11.07;46.54
48364;BME280;34170;54.364;18.582;2023-03-18T14:55:39;100064.84;;;11.33;46.03
48364;BME280;34170;54.364;18.582;2023-03-18T14:58:21;100068.53;;;10.96;47.30
48364;BME280;34170;54.364;18.582;2023-03-18T15:00:52;100047.41;;;11.01;47.47